Beulah, Oregon
Current Conditions -  °F | °C
As of 3:53 AM on Monday 20 Oct 2014 (Local Time) from KONO Reporting Station
Clear Clear  
Wind Chill: 36°   Ceiling: Unl
Heat Index: 39°   Visibility: 10mi
Dew Point: 32°   Wind: 5mph
Humidity: 76%   Direction: 260°W
Pressure: 29.87"   Gusts: NA
Location:  43.79°N, 117.941°W
Report Text: KONO 200953Z AUTO 26004KT 10SM CLR 04/00 A2987 RMK AO2 SLP116 T00390000
Loading
Personal Weather Stations






























Interactive Weather Map
Tropical Storm Tracking
New forecast layout! Learn more

10-Day Weather Forecast

Advertisements
Track Severe Weather on mobile